Time;durP1;ratioP1;P1;durP2;ratioP2;P2;SDS_P1;SDS_P2;PMS_P1;PMS_P2;Temp;Humidity;BMP_temperature;BMP_pressure;BME280_temperature;BME280_humidity;BME280_pressure;Samples;Min_cycle;Max_cycle;Signal;HPM_P1;HPM_P2
2022/05/26 00:01:20;;;;;;;2.50;0.73;;;13.00;99.90;;;;;;5032429;28;20439;-76
2022/05/26 00:03:47;;;;;;;2.20;0.70;;;13.10;99.90;;;;;;5033214;28;20409;-74
2022/05/26 00:06:14;;;;;;;4.80;0.80;;;13.20;99.90;;;;;;5033341;28;20427;-76
2022/05/26 00:08:40;;;;;;;0.70;0.70;;;13.30;99.90;;;;;;5033715;28;20772;-76
2022/05/26 00:11:09;;;;;;;2.40;0.70;;;13.40;99.90;;;;;;5033082;28;20495;-74
2022/05/26 00:13:36;;;;;;;1.07;0.90;;;13.50;99.90;;;;;;5033824;28;20202;-76
2022/05/26 00:16:02;;;;;;;6.57;0.67;;;13.50;99.90;;;;;;5033164;28;20890;-74
2022/05/26 00:18:28;;;;;;;2.60;0.80;;;13.60;99.90;;;;;;5033388;28;20471;-75
2022/05/26 00:20:53;;;;;;;1.47;0.67;;;13.70;99.90;;;;;;5033030;28;20574;-75
2022/05/26 00:23:19;;;;;;;2.10;0.70;;;13.80;99.90;;;;;;5034851;28;20657;-76
2022/05/26 00:25:45;;;;;;;3.73;0.70;;;13.90;99.90;;;;;;5035486;28;20662;-74
2022/05/26 00:28:11;;;;;;;0.80;0.60;;;14.00;99.90;;;;;;5034580;28;20185;-76
2022/05/26 00:30:40;;;;;;;2.90;0.90;;;14.00;99.90;;;;;;5032950;28;20913;-76
2022/05/26 00:33:07;;;;;;;1.50;0.83;;;14.00;99.90;;;;;;5032816;28;20198;-75
2022/05/26 00:35:34;;;;;;;1.60;0.90;;;14.00;99.90;;;;;;5033044;28;20400;-76
2022/05/26 00:38:05;;;;;;;2.70;0.77;;;14.00;99.90;;;;;;5033191;28;20425;-75
2022/05/26 00:40:32;;;;;;;0.60;0.60;;;14.00;99.90;;;;;;5032715;28;20393;-76
2022/05/26 00:42:58;;;;;;;2.93;0.70;;;14.00;99.90;;;;;;5033367;28;20494;-76
2022/05/26 00:45:25;;;;;;;1.40;0.80;;;14.00;99.90;;;;;;5032445;28;20929;-73
2022/05/26 00:47:51;;;;;;;1.57;0.80;;;14.00;99.90;;;;;;5032494;28;20902;-76
2022/05/26 00:50:21;;;;;;;2.20;0.70;;;14.00;99.90;;;;;;5032892;28;20464;-76
2022/05/26 00:53:16;;;;;;;1.10;0.90;;;14.00;99.90;;;;;;5031302;28;20780;-75
2022/05/26 00:55:50;;;;;;;1.13;1.00;;;13.90;99.90;;;;;;5031301;28;20420;-76
2022/05/26 00:58:37;;;;;;;1.77;0.60;;;13.90;99.90;;;;;;5032326;28;20455;-76
2022/05/26 02:31:41;;;;;;;0.90;0.50;;;13.10;99.90;;;;;;5711550;23;20504;-73
2022/05/26 02:34:09;;;;;;;0.93;0.60;;;13.00;99.90;;;;;;5011264;28;20492;-74
2022/05/26 02:36:36;;;;;;;1.70;0.60;;;13.00;99.90;;;;;;5011009;28;20801;-73
2022/05/26 02:39:04;;;;;;;1.27;0.60;;;12.90;99.90;;;;;;5011883;28;20410;-75
2022/05/26 02:41:31;;;;;;;0.70;0.70;;;12.90;99.90;;;;;;5011394;28;20526;-76
2022/05/26 02:43:57;;;;;;;1.53;0.50;;;12.90;99.90;;;;;;5013354;28;20936;-76
2022/05/26 02:46:44;;;;;;;0.90;0.70;;;12.90;99.90;;;;;;5013292;28;20429;-76
2022/05/26 02:49:41;;;;;;;0.60;0.60;;;12.80;99.90;;;;;;5012071;28;20413;-75
2022/05/26 02:52:39;;;;;;;0.97;0.60;;;12.70;99.90;;;;;;5011383;28;20433;-74
2022/05/26 02:55:31;;;;;;;0.60;0.50;;;12.70;99.90;;;;;;5012106;28;20420;-73
2022/05/26 02:58:11;;;;;;;1.03;0.67;;;12.60;99.90;;;;;;5011575;28;20398;-75
2022/05/26 03:01:03;;;;;;;1.90;0.80;;;12.60;99.90;;;;;;5011311;28;20476;-75
2022/05/26 03:03:51;;;;;;;2.20;0.60;;;12.50;99.90;;;;;;5011544;28;20474;-75
2022/05/26 03:06:38;;;;;;;1.70;0.60;;;12.50;99.90;;;;;;5011570;28;20757;-75
2022/05/26 03:09:05;;;;;;;2.00;0.90;;;12.40;99.90;;;;;;5011974;28;20428;-75
2022/05/26 03:11:43;;;;;;;0.60;0.60;;;12.40;99.90;;;;;;5011241;28;20432;-75
2022/05/26 03:14:08;;;;;;;1.90;0.60;;;12.40;99.90;;;;;;5011756;28;20463;-74
2022/05/26 03:16:34;;;;;;;1.00;0.57;;;12.40;99.90;;;;;;5014856;28;20496;-75
2022/05/26 03:18:59;;;;;;;2.40;0.60;;;12.40;99.90;;;;;;5012150;28;20183;-74
2022/05/26 03:21:25;;;;;;;0.87;0.60;;;12.30;99.90;;;;;;5011316;28;20570;-73
2022/05/26 03:23:50;;;;;;;1.00;0.63;;;12.30;99.90;;;;;;5012008;28;20266;-75
2022/05/26 03:26:16;;;;;;;2.87;0.70;;;12.30;99.90;;;;;;5011934;28;20270;-76
2022/05/26 03:28:41;;;;;;;0.67;0.50;;;12.20;99.90;;;;;;5012035;28;20670;-76
2022/05/26 03:31:08;;;;;;;1.27;0.60;;;12.20;99.90;;;;;;5010966;28;20205;-76
2022/05/26 03:40:46;;;;;;;0.60;0.50;;;12.30;99.90;;;;;;5013674;28;20210;-75
2022/05/26 03:41:48;;;;;;;1.03;0.83;;;12.40;99.90;;;;;;5013648;28;20960;-74
2022/05/26 03:44:14;;;;;;;0.70;0.60;;;12.30;99.90;;;;;;5015055;28;20425;-76
2022/05/26 03:46:39;;;;;;;0.50;0.50;;;12.40;99.90;;;;;;5015007;28;20416;-75
2022/05/26 03:49:05;;;;;;;3.17;0.60;;;12.30;99.90;;;;;;5023741;28;20570;-73
2022/05/26 03:51:30;;;;;;;1.50;0.67;;;12.40;99.90;;;;;;5034198;28;20219;-75
2022/05/26 03:53:56;;;;;;;1.70;0.60;;;12.30;99.90;;;;;;5034186;28;20241;-75
2022/05/26 03:56:21;;;;;;;2.30;0.80;;;12.30;99.90;;;;;;5034710;28;20185;-76
2022/05/26 03:58:47;;;;;;;0.83;0.80;;;12.30;99.90;;;;;;5034358;28;20190;-75
2022/05/26 04:01:14;;;;;;;0.77;0.50;;;12.30;99.90;;;;;;5033835;28;20236;-74
2022/05/26 04:03:39;;;;;;;1.43;0.60;;;12.30;99.90;;;;;;5034148;28;20180;-72
2022/05/26 04:06:05;;;;;;;3.03;0.70;;;12.30;99.90;;;;;;5033245;28;20418;-70
2022/05/26 04:08:31;;;;;;;0.60;0.60;;;12.30;99.90;;;;;;5033075;28;20936;-72
2022/05/26 04:10:56;;;;;;;2.40;0.70;;;12.30;99.90;;;;;;5032441;28;20670;-73
2022/05/26 04:13:22;;;;;;;2.20;0.60;;;12.40;99.90;;;;;;5032655;28;20467;-73
2022/05/26 04:15:47;;;;;;;0.60;0.50;;;12.40;99.90;;;;;;5032944;28;20529;-72
2022/05/26 04:18:13;;;;;;;1.73;0.50;;;12.40;99.90;;;;;;5032365;28;20170;-73
2022/05/26 04:20:38;;;;;;;1.07;0.50;;;12.40;99.90;;;;;;5032432;28;20183;-73
2022/05/26 04:23:04;;;;;;;1.50;0.70;;;12.50;99.90;;;;;;5032626;28;20190;-70
2022/05/26 04:25:29;;;;;;;0.50;0.50;;;12.70;99.90;;;;;;5032199;28;20269;-73
2022/05/26 04:27:55;;;;;;;1.83;0.80;;;12.80;99.90;;;;;;5032529;28;20185;-73
2022/05/26 04:30:22;;;;;;;0.70;0.70;;;12.90;99.90;;;;;;5032720;28;20182;-73
2022/05/26 04:32:48;;;;;;;0.60;0.60;;;13.10;99.90;;;;;;5032012;28;20630;-74
2022/05/26 04:35:14;;;;;;;1.17;0.63;;;13.20;99.90;;;;;;5032422;28;20428;-73
2022/05/26 04:37:40;;;;;;;0.83;0.80;;;13.40;99.90;;;;;;5032511;28;20696;-73
2022/05/26 04:40:07;;;;;;;1.27;0.60;;;13.60;99.90;;;;;;5031352;28;20170;-72
2022/05/26 04:42:34;;;;;;;0.60;0.60;;;13.80;99.90;;;;;;5030184;28;20852;-73
2022/05/26 04:45:00;;;;;;;0.90;0.50;;;14.00;99.90;;;;;;5032334;28;20787;-73
2022/05/26 04:47:26;;;;;;;0.83;0.50;;;14.20;99.90;;;;;;5032116;28;20413;-71
2022/05/26 04:49:51;;;;;;;0.57;0.53;;;14.30;99.90;;;;;;5032122;28;20416;-72
2022/05/26 04:52:19;;;;;;;1.17;0.60;;;14.40;99.90;;;;;;5028458;28;20198;-69
2022/05/26 04:54:45;;;;;;;5.87;0.60;;;14.50;99.90;;;;;;5031622;28;20206;-73
2022/05/26 04:57:13;;;;;;;0.90;0.53;;;14.50;99.90;;;;;;5031980;28;20439;-74
2022/05/26 04:59:40;;;;;;;1.90;0.60;;;14.50;99.90;;;;;;5031559;28;20417;-74
2022/05/26 05:02:09;;;;;;;2.10;0.70;;;14.50;99.90;;;;;;5030859;28;20540;-74
2022/05/26 05:04:34;;;;;;;0.50;0.50;;;14.70;99.90;;;;;;5030727;28;20467;-74
2022/05/26 05:07:00;;;;;;;1.80;0.60;;;16.10;99.90;;;;;;5031480;28;20416;-74
2022/05/26 05:09:25;;;;;;;0.90;0.60;;;17.90;99.90;;;;;;5031421;28;20709;-74
2022/05/26 05:11:51;;;;;;;2.30;0.60;;;18.40;99.90;;;;;;5030833;28;20225;-74
2022/05/26 05:14:17;;;;;;;2.10;0.60;;;19.80;99.90;;;;;;5031278;28;20233;-71
2022/05/26 05:16:43;;;;;;;1.00;0.50;;;21.40;99.90;;;;;;5031624;28;20829;-74
2022/05/26 05:19:10;;;;;;;0.97;0.50;;;23.00;99.90;;;;;;5030996;28;20544;-75
2022/05/26 05:21:48;;;;;;;1.30;0.50;;;24.40;99.90;;;;;;5030695;28;20608;-75
2022/05/26 05:24:39;;;;;;;2.50;0.47;;;24.70;99.90;;;;;;5032726;28;20432;-74
2022/05/26 05:27:30;;;;;;;5.43;0.70;;;24.90;99.90;;;;;;5030961;28;20433;-75
2022/05/26 05:30:01;;;;;;;1.03;0.50;;;25.40;99.90;;;;;;5021382;28;20425;-75
2022/05/26 05:32:39;;;;;;;4.67;1.07;;;26.00;99.90;;;;;;5031651;28;20436;-74
2022/05/26 05:35:18;;;;;;;1.90;0.40;;;26.20;99.90;;;;;;5031680;28;20456;-75
2022/05/26 05:37:44;;;;;;;1.63;0.50;;;26.20;99.90;;;;;;5031613;28;20475;-75
2022/05/26 05:40:10;;;;;;;1.83;0.60;;;25.30;99.90;;;;;;5031681;28;20913;-75
2022/05/26 05:42:36;;;;;;;2.30;0.50;;;25.50;99.90;;;;;;5030141;28;20385;-76
2022/05/26 05:45:02;;;;;;;0.90;0.50;;;25.20;99.90;;;;;;5030820;28;20421;-76
2022/05/26 05:47:27;;;;;;;2.20;0.80;;;24.30;99.90;;;;;;5030730;28;20174;-76
2022/05/26 05:49:53;;;;;;;4.30;0.50;;;24.30;99.90;;;;;;5031621;28;20412;-76
2022/05/26 05:52:22;;;;;;;0.73;0.50;;;24.20;99.90;;;;;;5032263;28;20212;-76
2022/05/26 05:54:47;;;;;;;1.27;0.50;;;23.30;99.90;;;;;;5030333;28;20255;-76
2022/05/26 05:57:13;;;;;;;1.20;0.40;;;22.10;99.90;;;;;;5030825;28;20413;-76
2022/05/26 05:59:39;;;;;;;1.80;0.60;;;21.10;99.90;;;;;;5030344;28;20174;-75
2022/05/26 06:02:06;;;;;;;2.50;0.60;;;20.20;99.90;;;;;;5029858;28;20201;-75
2022/05/26 06:04:31;;;;;;;3.53;0.70;;;19.50;99.90;;;;;;5030808;28;20177;-75
2022/05/26 06:06:58;;;;;;;0.90;0.50;;;18.80;99.90;;;;;;5029450;28;20762;-72
2022/05/26 06:09:23;;;;;;;1.77;0.60;;;18.40;99.90;;;;;;5030514;28;20231;-76
2022/05/26 06:11:50;;;;;;;0.70;0.50;;;18.20;99.90;;;;;;5029976;28;20964;-74
2022/05/26 06:14:16;;;;;;;3.10;0.60;;;17.90;99.90;;;;;;5030504;28;20212;-74
2022/05/26 06:16:42;;;;;;;1.73;0.57;;;17.80;99.90;;;;;;5029958;28;20475;-77
2022/05/26 06:19:08;;;;;;;0.60;0.60;;;17.80;99.90;;;;;;5030525;28;20917;-73
2022/05/26 06:21:37;;;;;;;4.80;0.70;;;17.60;99.90;;;;;;5029607;28;20244;-73
2022/05/26 06:24:02;;;;;;;1.43;0.53;;;17.50;99.90;;;;;;5030823;28;20504;-75
2022/05/26 06:26:28;;;;;;;1.13;0.60;;;17.40;99.90;;;;;;5029741;28;20516;-75
2022/05/26 06:31:39;;;;;;;0.87;0.60;;;17.30;99.90;;;;;;5029520;28;20451;-74
2022/05/26 06:39:33;;;;;;;3.73;1.03;;;17.30;99.90;;;;;;5029238;28;20440;-75
2022/05/26 06:42:05;;;;;;;1.77;0.90;;;17.30;99.90;;;;;;5029176;28;20882;-75
2022/05/26 06:44:31;;;;;;;0.70;0.60;;;17.30;99.90;;;;;;5029952;28;20174;-76
2022/05/26 06:46:56;;;;;;;1.17;0.67;;;17.30;99.90;;;;;;5029161;28;20884;-73
2022/05/26 06:49:22;;;;;;;0.70;0.60;;;17.30;99.90;;;;;;5029867;28;20416;-76
2022/05/26 06:51:47;;;;;;;2.50;0.70;;;17.30;99.90;;;;;;5029393;28;20205;-74
2022/05/26 06:54:13;;;;;;;0.50;0.50;;;17.30;99.90;;;;;;5029448;28;20209;-77
2022/05/26 06:56:39;;;;;;;1.47;0.70;;;17.40;99.90;;;;;;5029683;28;20182;-78
2022/05/26 06:59:04;;;;;;;0.60;0.60;;;17.60;99.90;;;;;;5030090;28;20174;-75
2022/05/26 07:01:30;;;;;;;1.60;0.50;;;17.80;99.90;;;;;;5029459;28;20190;-76
2022/05/26 07:03:56;;;;;;;1.33;0.60;;;17.90;99.90;;;;;;5030010;28;20179;-76
2022/05/26 07:06:25;;;;;;;1.43;0.50;;;17.90;99.90;;;;;;5030798;28;20186;-76
2022/05/26 07:08:51;;;;;;;2.90;0.60;;;18.10;99.90;;;;;;5033839;28;20616;-75
2022/05/26 07:11:18;;;;;;;1.00;0.60;;;18.20;99.90;;;;;;5032968;28;20436;-72
2022/05/26 07:13:44;;;;;;;1.37;0.60;;;18.80;99.90;;;;;;5033658;28;20518;-75
2022/05/26 07:16:10;;;;;;;2.30;0.60;;;19.40;99.90;;;;;;5033250;28;20495;-75
2022/05/26 07:18:36;;;;;;;2.40;0.50;;;19.90;99.90;;;;;;5033545;28;20483;-76
2022/05/26 07:21:04;;;;;;;1.03;0.70;;;20.10;99.90;;;;;;5033305;28;20205;-76
2022/05/26 07:23:30;;;;;;;0.93;0.50;;;20.20;99.90;;;;;;5032712;28;20419;-76
2022/05/26 07:25:56;;;;;;;0.80;0.47;;;20.30;99.90;;;;;;5033711;28;20416;-76
2022/05/26 07:28:23;;;;;;;2.00;0.80;;;20.30;99.90;;;;;;5033628;28;20661;-76
2022/05/26 07:30:49;;;;;;;1.00;0.70;;;20.40;99.90;;;;;;5032579;28;20596;-76
2022/05/26 07:33:15;;;;;;;2.20;0.60;;;20.40;99.90;;;;;;5033218;28;20551;-77
2022/05/26 07:35:40;;;;;;;1.13;0.60;;;20.40;99.90;;;;;;5033487;28;20495;-76
2022/05/26 07:43:36;;;;;;;0.70;0.50;;;20.20;99.90;;;;;;5032361;28;21136;-77
2022/05/26 07:46:02;;;;;;;1.47;0.60;;;19.90;99.90;;;;;;5033216;28;20417;-77
2022/05/26 07:48:28;;;;;;;5.15;0.70;;;20.00;99.90;;;;;;5032624;28;20414;-75
2022/05/26 07:50:53;;;;;;;1.30;0.70;;;19.80;99.90;;;;;;5031825;28;20259;-76
2022/05/26 07:53:19;;;;;;;1.93;0.70;;;19.70;99.90;;;;;;5031593;28;20430;-76
2022/05/26 07:55:44;;;;;;;1.17;0.70;;;19.60;99.90;;;;;;5032878;28;20662;-78
2022/05/26 07:58:11;;;;;;;0.80;0.60;;;19.70;99.90;;;;;;5032447;28;20297;-76
2022/05/26 08:00:37;;;;;;;1.50;0.50;;;19.80;99.90;;;;;;5030631;28;20186;-74
2022/05/26 08:03:03;;;;;;;0.97;0.90;;;19.80;99.90;;;;;;5032043;28;20523;-76
2022/05/26 08:05:28;;;;;;;2.10;0.60;;;20.00;99.90;;;;;;5030836;28;20491;-76
2022/05/26 08:07:54;;;;;;;1.27;0.90;;;19.80;99.90;;;;;;5031224;28;20189;-75
2022/05/26 08:10:20;;;;;;;0.63;0.60;;;19.70;99.90;;;;;;5030154;28;20551;-77
2022/05/26 08:12:45;;;;;;;3.83;0.50;;;19.50;99.90;;;;;;5030641;28;20280;-76
2022/05/26 08:15:11;;;;;;;0.60;0.60;;;19.30;99.90;;;;;;5032242;28;20202;-77
2022/05/26 08:17:37;;;;;;;1.70;0.60;;;19.10;99.90;;;;;;5029971;28;20174;-72
2022/05/26 08:20:04;;;;;;;1.10;0.67;;;18.90;99.90;;;;;;5032079;28;20184;-74
2022/05/26 08:22:29;;;;;;;1.40;0.77;;;18.60;99.90;;;;;;5031379;28;20428;-74
2022/05/26 08:24:57;;;;;;;0.90;0.73;;;18.50;99.90;;;;;;5032591;28;20908;-75
2022/05/26 08:27:23;;;;;;;0.70;0.60;;;18.50;99.90;;;;;;5031853;28;20192;-75
2022/05/26 08:29:49;;;;;;;2.43;0.60;;;18.50;99.90;;;;;;5032116;28;20439;-75
2022/05/26 08:32:16;;;;;;;0.60;0.60;;;18.40;99.90;;;;;;5030403;28;20452;-75
2022/05/26 08:34:42;;;;;;;4.20;0.60;;;18.30;99.90;;;;;;5031801;28;20468;-75
2022/05/26 08:37:18;;;;;;;1.80;0.70;;;18.40;99.90;;;;;;5031925;28;20416;-74
2022/05/26 08:39:45;;;;;;;1.70;0.60;;;18.30;99.90;;;;;;5031245;28;20542;-74
2022/05/26 08:42:18;;;;;;;0.70;0.60;;;18.30;99.90;;;;;;5032356;28;20460;-75
2022/05/26 08:44:44;;;;;;;2.40;0.60;;;18.40;99.90;;;;;;5033681;28;20439;-75
2022/05/26 08:47:16;;;;;;;2.93;0.70;;;18.30;99.90;;;;;;5033091;28;20424;-77
2022/05/26 08:49:56;;;;;;;0.60;0.60;;;18.40;99.90;;;;;;5031507;28;20173;-75
2022/05/26 08:52:35;;;;;;;6.97;0.70;;;18.60;99.90;;;;;;5030762;28;20499;-74
2022/05/26 08:55:28;;;;;;;2.40;0.50;;;18.90;99.90;;;;;;5031584;28;20803;-73
2022/05/26 08:58:06;;;;;;;6.03;0.80;;;19.30;99.90;;;;;;5031893;28;20781;-74
2022/05/26 09:00:33;;;;;;;1.43;0.60;;;19.70;99.90;;;;;;5030524;28;20423;-74
2022/05/26 09:03:00;;;;;;;1.97;1.03;;;20.20;99.90;;;;;;5031133;28;20428;-74
2022/05/26 09:05:30;;;;;;;0.93;0.53;;;20.30;99.90;;;;;;5031345;28;20467;-74
2022/05/26 09:13:45;;;;;;;0.70;0.70;;;20.50;99.90;;;;;;5031628;28;20900;-75
2022/05/26 09:16:11;;;;;;;1.90;0.70;;;20.60;99.90;;;;;;5031563;28;20409;-74
2022/05/26 09:18:39;;;;;;;1.63;0.57;;;20.70;99.90;;;;;;5030686;28;20182;-72
2022/05/26 09:21:22;;;;;;;3.43;0.60;;;20.60;99.90;;;;;;5030627;28;20823;-75
2022/05/26 09:23:48;;;;;;;3.07;1.00;;;20.50;99.90;;;;;;5031314;28;20424;-74
2022/05/26 09:26:19;;;;;;;2.87;1.50;;;20.40;99.90;;;;;;5031329;28;20932;-74
2022/05/26 09:28:50;;;;;;;1.20;0.90;;;20.10;99.90;;;;;;5030376;28;20450;-74
2022/05/26 09:31:28;;;;;;;2.27;0.80;;;19.90;99.90;;;;;;5030147;28;20493;-76
2022/05/26 09:34:04;;;;;;;0.80;0.80;;;19.80;99.90;;;;;;5031107;28;20509;-76
2022/05/26 09:36:42;;;;;;;1.67;0.50;;;19.80;99.90;;;;;;5030796;28;20940;-77
2022/05/26 09:39:08;;;;;;;1.97;0.70;;;19.50;99.90;;;;;;5030975;28;20420;-75
2022/05/26 09:41:38;;;;;;;0.60;0.60;;;19.40;99.90;;;;;;5030559;28;20436;-74
2022/05/26 09:44:13;;;;;;;1.87;0.60;;;19.30;99.90;;;;;;5031445;28;20181;-76
2022/05/26 09:46:48;;;;;;;0.70;0.60;;;19.50;99.90;;;;;;5031567;28;20803;-75
2022/05/26 09:49:13;;;;;;;3.17;0.70;;;19.50;99.90;;;;;;5030442;28;20516;-75
2022/05/26 09:51:45;;;;;;;1.13;0.60;;;19.50;99.90;;;;;;5028662;28;20898;-75
2022/05/26 09:54:27;;;;;;;0.80;0.80;;;19.50;99.90;;;;;;5028856;28;20213;-75
2022/05/26 09:56:53;;;;;;;7.07;0.90;;;19.40;99.90;;;;;;5029712;28;20462;-75
2022/05/26 09:59:31;;;;;;;1.17;0.80;;;19.40;99.90;;;;;;5029191;28;20829;-76
2022/05/26 10:02:30;;;;;;;2.03;0.73;;;19.50;99.90;;;;;;5028891;28;20601;-72
2022/05/26 10:05:10;;;;;;;0.80;0.70;;;19.60;99.90;;;;;;5018293;28;20421;-76
2022/05/26 10:07:44;;;;;;;2.00;0.70;;;19.80;99.90;;;;;;5029913;28;20913;-75
2022/05/26 10:10:39;;;;;;;3.70;0.63;;;19.80;99.90;;;;;;5030343;28;20486;-76
2022/05/26 10:13:21;;;;;;;1.40;0.80;;;19.70;99.90;;;;;;5030275;28;20488;-75
2022/05/26 10:15:55;;;;;;;3.63;1.50;;;19.60;99.90;;;;;;5030262;28;20420;-77
2022/05/26 10:18:44;;;;;;;1.27;1.17;;;19.60;99.90;;;;;;5029964;28;20412;-77
2022/05/26 10:21:29;;;;;;;3.27;0.67;;;19.50;99.90;;;;;;5029021;28;20495;-74
2022/05/26 10:24:03;;;;;;;2.80;0.73;;;19.70;99.90;;;;;;5030232;28;20412;-72
2022/05/26 10:26:37;;;;;;;4.33;0.80;;;19.80;99.90;;;;;;5029760;28;20411;-75
2022/05/26 10:29:18;;;;;;;2.30;0.67;;;20.10;99.90;;;;;;5030431;28;20924;-78
2022/05/26 10:31:50;;;;;;;1.20;0.80;;;20.30;99.90;;;;;;5032289;28;20456;-77
2022/05/26 10:34:50;;;;;;;2.03;1.00;;;20.40;99.90;;;;;;5030925;28;20855;-78
2022/05/26 10:37:55;;;;;;;4.00;1.03;;;20.30;99.90;;;;;;5020621;28;20452;-77
2022/05/26 10:40:50;;;;;;;1.03;0.70;;;20.40;99.90;;;;;;5029944;28;20419;-77
2022/05/26 10:43:36;;;;;;;0.70;0.70;;;20.50;99.90;;;;;;5035868;28;20913;-78
2022/05/26 10:46:06;;;;;;;0.77;0.60;;;20.50;99.90;;;;;;5035200;28;20414;-79
2022/05/26 10:48:56;;;;;;;1.83;0.60;;;20.40;99.90;;;;;;5034005;28;20788;-78
2022/05/26 10:51:28;;;;;;;0.60;0.60;;;20.10;99.90;;;;;;5034241;28;20425;-78
2022/05/26 10:53:56;;;;;;;0.60;0.60;;;19.80;99.90;;;;;;5035245;28;20461;-78
2022/05/26 10:56:43;;;;;;;0.80;0.53;;;19.70;99.90;;;;;;5035017;28;20420;-78
2022/05/26 10:59:14;;;;;;;1.30;0.70;;;19.60;99.90;;;;;;5034992;28;20923;-78
2022/05/26 11:01:55;;;;;;;1.57;0.60;;;19.50;99.90;;;;;;5034685;28;20425;-76
2022/05/26 11:04:25;;;;;;;2.00;0.63;;;19.40;99.90;;;;;;5035469;28;20465;-77
2022/05/26 11:06:54;;;;;;;2.63;0.77;;;19.40;99.90;;;;;;5035239;28;20432;-78
2022/05/26 11:09:30;;;;;;;0.80;0.60;;;19.30;99.90;;;;;;5035398;28;20779;-76
2022/05/26 11:12:00;;;;;;;1.00;0.60;;;19.40;99.90;;;;;;5034410;28;21308;-78
2022/05/26 11:18:06;;;;;;;1.10;0.60;;;19.80;99.90;;;;;;5034995;28;20435;-78
2022/05/26 11:20:40;;;;;;;3.13;0.70;;;20.10;99.90;;;;;;5013791;28;20796;-75
2022/05/26 11:23:07;;;;;;;2.87;1.30;;;20.30;99.90;;;;;;5034559;28;20471;-78
2022/05/26 11:25:38;;;;;;;1.17;0.70;;;20.30;99.90;;;;;;5035174;28;20435;-78
2022/05/26 11:28:12;;;;;;;0.80;0.60;;;20.30;99.90;;;;;;5035270;28;20393;-77
2022/05/26 11:36:55;;;;;;;0.70;0.60;;;20.00;99.90;;;;;;5033644;28;20952;-76
2022/05/26 11:39:38;;;;;;;1.03;0.70;;;20.00;99.90;;;;;;5033234;28;20935;-78
2022/05/26 11:42:07;;;;;;;3.97;0.90;;;19.80;99.90;;;;;;5032601;28;20519;-77
2022/05/26 11:44:36;;;;;;;0.80;0.73;;;19.60;99.90;;;;;;5033751;28;20417;-77
2022/05/26 11:47:32;;;;;;;1.00;0.80;;;19.50;99.90;;;;;;5033561;28;20812;-78
2022/05/26 11:49:57;;;;;;;0.93;0.80;;;19.80;99.90;;;;;;5036190;28;20404;-77
2022/05/26 11:52:34;;;;;;;1.73;0.70;;;20.20;99.90;;;;;;5035239;28;20574;-80
2022/05/26 11:55:02;;;;;;;1.90;0.70;;;20.50;99.90;;;;;;5036391;28;20264;-79
2022/05/26 11:57:35;;;;;;;1.07;0.70;;;20.60;99.90;;;;;;5036333;28;20409;-79
2022/05/26 12:00:19;;;;;;;1.67;0.60;;;20.50;99.90;;;;;;5036109;28;20865;-79
2022/05/26 12:02:51;;;;;;;1.67;0.90;;;20.30;99.90;;;;;;5035514;28;20435;-80
2022/05/26 12:05:28;;;;;;;1.73;0.70;;;20.10;99.90;;;;;;5036241;28;20430;-79
2022/05/26 12:08:03;;;;;;;4.47;1.20;;;20.00;99.90;;;;;;5036945;28;20413;-80
2022/05/26 12:10:37;;;;;;;1.87;0.90;;;19.80;99.90;;;;;;5036262;28;20495;-80
2022/05/26 12:13:32;;;;;;;0.97;0.80;;;19.70;99.90;;;;;;5035655;28;20470;-79
2022/05/26 12:16:22;;;;;;;1.40;1.10;;;19.50;99.90;;;;;;5029470;28;20421;-76
2022/05/26 12:19:09;;;;;;;6.67;1.10;;;19.40;99.90;;;;;;5032340;28;20440;-77
2022/05/26 12:21:38;;;;;;;1.00;0.90;;;19.30;99.90;;;;;;5033959;28;20803;-76
2022/05/26 12:24:32;;;;;;;4.27;1.10;;;19.20;99.90;;;;;;5034256;28;20507;-78
2022/05/26 12:26:59;;;;;;;3.50;1.00;;;19.30;99.90;;;;;;5034236;28;20416;-77
2022/05/26 12:30:01;;;;;;;1.93;0.90;;;19.30;99.90;;;;;;5033007;28;20408;-77
2022/05/26 12:32:31;;;;;;;4.60;0.80;;;19.30;99.90;;;;;;5033441;28;20475;-77
2022/05/26 12:35:18;;;;;;;3.30;1.10;;;19.40;99.90;;;;;;5033816;28;20960;-74
2022/05/26 12:38:15;;;;;;;1.63;0.70;;;19.30;99.90;;;;;;5032470;28;20420;-77
2022/05/26 12:41:02;;;;;;;0.87;0.70;;;19.50;99.90;;;;;;5032277;28;20910;-76
2022/05/26 12:43:55;;;;;;;3.03;0.90;;;19.80;99.90;;;;;;5033675;28;20821;-76
2022/05/26 12:46:27;;;;;;;2.17;1.00;;;20.30;99.90;;;;;;5033858;28;20409;-77
2022/05/26 12:49:01;;;;;;;1.77;1.17;;;20.40;99.90;;;;;;5033391;28;20417;-78
2022/05/26 12:51:36;;;;;;;3.90;1.40;;;20.50;99.90;;;;;;5032007;28;20913;-78
2022/05/26 12:54:07;;;;;;;2.03;1.13;;;20.30;99.90;;;;;;5031630;28;20998;-79
2022/05/26 12:56:53;;;;;;;4.10;1.10;;;20.40;99.90;;;;;;5033698;28;20409;-79
2022/05/26 12:59:29;;;;;;;0.80;0.77;;;20.30;99.90;;;;;;5033848;28;20408;-78
2022/05/26 13:01:55;;;;;;;1.17;0.90;;;20.40;99.90;;;;;;5035135;28;20432;-79
2022/05/26 13:04:24;;;;;;;1.10;0.90;;;20.40;99.90;;;;;;5032697;28;20409;-79
2022/05/26 13:06:52;;;;;;;1.20;0.93;;;20.40;99.90;;;;;;5035350;28;20166;-79
2022/05/26 13:09:24;;;;;;;3.27;1.00;;;20.50;99.90;;;;;;5037220;28;20452;-79
2022/05/26 13:11:57;;;;;;;1.73;0.90;;;20.40;99.90;;;;;;5036201;28;20438;-79
2022/05/26 13:14:31;;;;;;;1.87;0.80;;;20.10;99.90;;;;;;5037788;28;20448;-78
2022/05/26 13:16:59;;;;;;;6.77;1.13;;;20.10;99.90;;;;;;5041168;28;20411;-76
2022/05/26 13:19:25;;;;;;;2.67;1.17;;;20.00;99.90;;;;;;5043973;28;20476;-79
2022/05/26 13:21:53;;;;;;;1.50;0.80;;;19.90;99.90;;;;;;5041410;28;20896;-79
2022/05/26 13:24:25;;;;;;;1.53;1.20;;;19.70;99.90;;;;;;5032749;28;20181;-76
2022/05/26 13:26:57;;;;;;;4.33;1.70;;;19.50;99.90;;;;;;5032761;28;20465;-77
2022/05/26 13:29:24;;;;;;;0.90;0.90;;;19.40;99.90;;;;;;5032441;28;20928;-78
2022/05/26 13:34:47;;;;;;;4.20;0.97;;;19.30;99.90;;;;;;5031304;28;20471;-78
2022/05/26 13:37:15;;;;;;;4.80;1.40;;;19.20;99.90;;;;;;5031746;28;20412;-79
2022/05/26 13:39:41;;;;;;;1.10;0.77;;;19.20;99.90;;;;;;5031316;28;20413;-79
2022/05/26 13:42:08;;;;;;;2.27;0.77;;;19.10;99.90;;;;;;5033255;28;20432;-77
2022/05/26 13:44:42;;;;;;;2.57;1.00;;;19.10;99.90;;;;;;5034090;28;20417;-78
2022/05/26 13:47:11;;;;;;;2.20;0.97;;;19.10;99.90;;;;;;5033744;28;20530;-79
2022/05/26 13:49:55;;;;;;;5.50;2.10;;;19.10;99.90;;;;;;5033499;28;20790;-77
2022/05/26 13:52:24;;;;;;;3.07;0.90;;;19.10;99.90;;;;;;5032808;28;20444;-79
2022/05/26 13:54:54;;;;;;;3.70;2.23;;;19.10;99.90;;;;;;5032610;28;20467;-79
2022/05/26 13:57:26;;;;;;;4.93;1.50;;;19.20;99.90;;;;;;5032908;28;20810;-79
2022/05/26 13:59:55;;;;;;;10.20;3.70;;;19.20;99.90;;;;;;5032667;28;20412;-79
2022/05/26 14:02:23;;;;;;;2.90;1.93;;;19.40;99.90;;;;;;5032562;28;20455;-79
2022/05/26 14:05:12;;;;;;;2.00;0.80;;;19.50;99.90;;;;;;5033454;28;20413;-79
2022/05/26 14:07:40;;;;;;;4.13;0.87;;;19.70;99.90;;;;;;5032029;28;20401;-76
2022/05/26 14:10:14;;;;;;;5.53;1.37;;;20.10;99.90;;;;;;5033321;28;20536;-79
2022/05/26 14:12:41;;;;;;;3.07;0.80;;;20.30;99.90;;;;;;5032364;28;20442;-78
2022/05/26 14:15:07;;;;;;;1.53;0.90;;;20.30;99.90;;;;;;5032265;28;20961;-78
2022/05/26 14:17:34;;;;;;;2.87;0.70;;;20.40;99.90;;;;;;5032223;28;20487;-76
2022/05/26 14:20:15;;;;;;;2.30;0.97;;;20.50;99.90;;;;;;5031094;28;20415;-78
2022/05/26 14:22:47;;;;;;;2.37;0.70;;;20.50;99.90;;;;;;5029474;28;20421;-78
2022/05/26 14:25:18;;;;;;;2.63;1.00;;;20.70;99.90;;;;;;5031446;28;20836;-79
2022/05/26 14:27:56;;;;;;;1.10;1.07;;;20.80;99.90;;;;;;5030836;28;20866;-77
2022/05/26 14:30:41;;;;;;;1.43;1.00;;;21.10;99.90;;;;;;5031711;28;20466;-80
2022/05/26 14:33:21;;;;;;;1.33;0.97;;;21.20;99.90;;;;;;5031905;28;20519;-79
2022/05/26 14:35:48;;;;;;;4.40;2.20;;;21.30;99.90;;;;;;5031553;28;20828;-79
2022/05/26 14:38:15;;;;;;;4.13;2.03;;;21.30;99.90;;;;;;5031324;28;20495;-78
2022/05/26 14:40:41;;;;;;;3.10;1.17;;;21.20;99.90;;;;;;5030010;28;20405;-77
2022/05/26 14:43:07;;;;;;;2.70;1.17;;;21.20;99.90;;;;;;5030589;28;20442;-79
2022/05/26 14:45:33;;;;;;;1.30;1.03;;;21.10;99.90;;;;;;5031987;28;20417;-77
2022/05/26 14:48:04;;;;;;;1.43;0.80;;;21.10;99.90;;;;;;5032712;28;20423;-77
2022/05/26 14:50:31;;;;;;;0.80;0.80;;;21.10;99.90;;;;;;5032521;28;20194;-78
2022/05/26 14:52:57;;;;;;;1.77;0.80;;;21.00;99.90;;;;;;5030864;28;20421;-76
2022/05/26 14:55:29;;;;;;;2.90;1.00;;;21.10;99.90;;;;;;5030009;28;20564;-79
2022/05/26 14:58:14;;;;;;;1.13;0.60;;;21.10;99.90;;;;;;5031274;28;20423;-78
2022/05/26 15:00:47;;;;;;;4.20;0.90;;;21.10;99.90;;;;;;5030099;28;20467;-76
2022/05/26 15:03:14;;;;;;;1.10;0.80;;;21.10;99.90;;;;;;5030252;28;20415;-78
2022/05/26 15:05:40;;;;;;;1.40;0.80;;;21.00;99.90;;;;;;5028189;28;20409;-77
2022/05/26 15:08:20;;;;;;;0.80;0.70;;;21.00;99.90;;;;;;5030340;28;20170;-78
2022/05/26 15:10:46;;;;;;;2.30;0.77;;;21.00;99.90;;;;;;5029751;28;20874;-78
2022/05/26 15:13:12;;;;;;;0.70;0.70;;;21.00;99.90;;;;;;5030562;28;20411;-77
2022/05/26 15:15:38;;;;;;;1.80;1.00;;;21.00;99.90;;;;;;5029829;28;20984;-75
2022/05/26 15:18:04;;;;;;;5.10;0.87;;;21.00;99.90;;;;;;5030487;28;20170;-79